sensor_id;sensor_type;location;lat;lon;timestamp;P1;durP1;ratioP1;P2;durP2;ratioP2
17858;SDS011;35426;30.698;104.050;2023-03-01T00:01:49;70.53;;;21.90;;
17858;SDS011;35426;30.698;104.050;2023-03-01T00:04:26;72.47;;;20.90;;
17858;SDS011;35426;30.698;104.050;2023-03-01T00:07:05;70.67;;;21.87;;
17858;SDS011;35426;30.698;104.050;2023-03-01T00:09:41;68.40;;;22.60;;
17858;SDS011;35426;30.698;104.050;2023-03-01T00:12:17;68.63;;;22.13;;
17858;SDS011;35426;30.698;104.050;2023-03-01T00:14:53;57.73;;;21.97;;
17858;SDS011;35426;30.698;104.050;2023-03-01T00:17:36;64.57;;;20.97;;
17858;SDS011;35426;30.698;104.050;2023-03-01T00:20:16;70.93;;;21.73;;
17858;SDS011;35426;30.698;104.050;2023-03-01T00:22:55;58.27;;;21.30;;
17858;SDS011;35426;30.698;104.050;2023-03-01T00:25:31;70.70;;;21.53;;
17858;SDS011;35426;30.698;104.050;2023-03-01T00:28:15;67.80;;;22.73;;
17858;SDS011;35426;30.698;104.050;2023-03-01T00:30:51;60.20;;;21.17;;
17858;SDS011;35426;30.698;104.050;2023-03-01T00:33:27;71.60;;;21.57;;
17858;SDS011;35426;30.698;104.050;2023-03-01T00:36:06;62.03;;;20.90;;
17858;SDS011;35426;30.698;104.050;2023-03-01T00:38:49;78.27;;;22.63;;
17858;SDS011;35426;30.698;104.050;2023-03-01T00:41:27;68.60;;;21.47;;
17858;SDS011;35426;30.698;104.050;2023-03-01T00:44:09;62.40;;;21.23;;
17858;SDS011;35426;30.698;104.050;2023-03-01T00:46:46;63.87;;;21.73;;
17858;SDS011;35426;30.698;104.050;2023-03-01T00:49:27;74.83;;;21.23;;
17858;SDS011;35426;30.698;104.050;2023-03-01T00:52:07;69.17;;;22.60;;
17858;SDS011;35426;30.698;104.050;2023-03-01T00:54:51;82.97;;;23.33;;
17858;SDS011;35426;30.698;104.050;2023-03-01T00:57:30;83.30;;;22.83;;
17858;SDS011;35426;30.698;104.050;2023-03-01T01:00:11;73.57;;;21.00;;
17858;SDS011;35426;30.698;104.050;2023-03-01T01:02:50;72.40;;;24.90;;
17858;SDS011;35426;30.698;104.050;2023-03-01T01:05:27;70.60;;;24.70;;
17858;SDS011;35426;30.698;104.050;2023-03-01T01:08:10;78.30;;;24.87;;
17858;SDS011;35426;30.698;104.050;2023-03-01T01:10:54;73.40;;;23.37;;
17858;SDS011;35426;30.698;104.050;2023-03-01T01:13:31;81.73;;;26.70;;
17858;SDS011;35426;30.698;104.050;2023-03-01T01:16:10;81.37;;;24.60;;
17858;SDS011;35426;30.698;104.050;2023-03-01T01:18:49;90.23;;;26.57;;
17858;SDS011;35426;30.698;104.050;2023-03-01T01:21:26;79.37;;;24.97;;
17858;SDS011;35426;30.698;104.050;2023-03-01T01:24:07;76.47;;;24.57;;
17858;SDS011;35426;30.698;104.050;2023-03-01T01:26:48;75.97;;;23.53;;
17858;SDS011;35426;30.698;104.050;2023-03-01T01:29:25;68.53;;;23.57;;
17858;SDS011;35426;30.698;104.050;2023-03-01T01:32:02;81.47;;;23.10;;
17858;SDS011;35426;30.698;104.050;2023-03-01T01:34:47;84.57;;;25.13;;
17858;SDS011;35426;30.698;104.050;2023-03-01T01:37:23;73.87;;;25.90;;
17858;SDS011;35426;30.698;104.050;2023-03-01T01:40:03;89.37;;;24.93;;
17858;SDS011;35426;30.698;104.050;2023-03-01T01:42:44;84.87;;;25.03;;
17858;SDS011;35426;30.698;104.050;2023-03-01T01:45:31;82.27;;;24.60;;
17858;SDS011;35426;30.698;104.050;2023-03-01T01:48:12;79.60;;;26.37;;
17858;SDS011;35426;30.698;104.050;2023-03-01T01:50:55;72.60;;;27.70;;
17858;SDS011;35426;30.698;104.050;2023-03-01T01:53:35;79.53;;;24.63;;
17858;SDS011;35426;30.698;104.050;2023-03-01T01:56:13;78.47;;;24.73;;
17858;SDS011;35426;30.698;104.050;2023-03-01T01:58:55;94.50;;;25.67;;
17858;SDS011;35426;30.698;104.050;2023-03-01T02:01:33;81.10;;;23.50;;
17858;SDS011;35426;30.698;104.050;2023-03-01T02:04:09;72.20;;;24.80;;
17858;SDS011;35426;30.698;104.050;2023-03-01T02:06:46;83.03;;;24.03;;
17858;SDS011;35426;30.698;104.050;2023-03-01T02:09:27;87.47;;;27.00;;
17858;SDS011;35426;30.698;104.050;2023-03-01T02:12:05;94.83;;;26.40;;
17858;SDS011;35426;30.698;104.050;2023-03-01T02:14:49;81.33;;;25.47;;
17858;SDS011;35426;30.698;104.050;2023-03-01T02:17:26;89.57;;;27.37;;
17858;SDS011;35426;30.698;104.050;2023-03-01T02:20:07;77.40;;;26.50;;
17858;SDS011;35426;30.698;104.050;2023-03-01T02:22:59;88.53;;;26.13;;
17858;SDS011;35426;30.698;104.050;2023-03-01T02:25:39;78.03;;;24.50;;
17858;SDS011;35426;30.698;104.050;2023-03-01T02:28:29;79.00;;;24.57;;
17858;SDS011;35426;30.698;104.050;2023-03-01T02:31:09;77.60;;;24.87;;
17858;SDS011;35426;30.698;104.050;2023-03-01T02:34:05;81.57;;;26.30;;
17858;SDS011;35426;30.698;104.050;2023-03-01T02:36:44;80.73;;;26.23;;
17858;SDS011;35426;30.698;104.050;2023-03-01T02:39:25;81.90;;;25.27;;
17858;SDS011;35426;30.698;104.050;2023-03-01T02:42:06;74.40;;;24.93;;
17858;SDS011;35426;30.698;104.050;2023-03-01T02:44:48;85.70;;;25.93;;
17858;SDS011;35426;30.698;104.050;2023-03-01T02:47:26;87.70;;;27.10;;
17858;SDS011;35426;30.698;104.050;2023-03-01T02:50:02;75.53;;;25.27;;
17858;SDS011;35426;30.698;104.050;2023-03-01T02:52:56;77.37;;;25.20;;
17858;SDS011;35426;30.698;104.050;2023-03-01T02:55:36;85.63;;;27.07;;
17858;SDS011;35426;30.698;104.050;2023-03-01T02:58:16;72.87;;;26.83;;
17858;SDS011;35426;30.698;104.050;2023-03-01T03:00:57;88.43;;;26.83;;
17858;SDS011;35426;30.698;104.050;2023-03-01T03:03:33;83.50;;;26.47;;
17858;SDS011;35426;30.698;104.050;2023-03-01T03:06:12;80.70;;;26.43;;
17858;SDS011;35426;30.698;104.050;2023-03-01T03:08:51;88.77;;;26.50;;
17858;SDS011;35426;30.698;104.050;2023-03-01T03:11:28;86.30;;;28.07;;
17858;SDS011;35426;30.698;104.050;2023-03-01T03:14:05;90.20;;;28.30;;
17858;SDS011;35426;30.698;104.050;2023-03-01T03:16:55;82.30;;;27.37;;
17858;SDS011;35426;30.698;104.050;2023-03-01T03:19:30;75.93;;;27.87;;
17858;SDS011;35426;30.698;104.050;2023-03-01T03:22:08;82.87;;;31.07;;
17858;SDS011;35426;30.698;104.050;2023-03-01T03:24:47;77.90;;;27.53;;
17858;SDS011;35426;30.698;104.050;2023-03-01T03:27:25;86.20;;;29.97;;
17858;SDS011;35426;30.698;104.050;2023-03-01T03:30:02;83.53;;;30.57;;
17858;SDS011;35426;30.698;104.050;2023-03-01T03:32:47;85.07;;;27.93;;
17858;SDS011;35426;30.698;104.050;2023-03-01T03:35:27;88.30;;;27.47;;
17858;SDS011;35426;30.698;104.050;2023-03-01T03:38:05;73.73;;;27.17;;
17858;SDS011;35426;30.698;104.050;2023-03-01T03:40:48;78.43;;;27.20;;
17858;SDS011;35426;30.698;104.050;2023-03-01T03:43:28;81.90;;;28.40;;
17858;SDS011;35426;30.698;104.050;2023-03-01T03:46:08;82.43;;;27.17;;
17858;SDS011;35426;30.698;104.050;2023-03-01T03:48:51;71.77;;;27.00;;
17858;SDS011;35426;30.698;104.050;2023-03-01T03:51:33;83.63;;;26.27;;
17858;SDS011;35426;30.698;104.050;2023-03-01T03:54:09;78.20;;;29.50;;
17858;SDS011;35426;30.698;104.050;2023-03-01T03:56:47;85.90;;;27.80;;
17858;SDS011;35426;30.698;104.050;2023-03-01T03:59:26;81.53;;;26.17;;
17858;SDS011;35426;30.698;104.050;2023-03-01T04:02:05;73.80;;;25.83;;
17858;SDS011;35426;30.698;104.050;2023-03-01T04:04:45;75.73;;;24.97;;
17858;SDS011;35426;30.698;104.050;2023-03-01T04:07:22;71.63;;;25.73;;
17858;SDS011;35426;30.698;104.050;2023-03-01T04:10:09;70.17;;;23.33;;
17858;SDS011;35426;30.698;104.050;2023-03-01T04:12:47;72.40;;;21.83;;
17858;SDS011;35426;30.698;104.050;2023-03-01T04:15:29;69.20;;;18.13;;
17858;SDS011;35426;30.698;104.050;2023-03-01T04:18:13;66.03;;;16.23;;
17858;SDS011;35426;30.698;104.050;2023-03-01T04:21:04;78.63;;;17.00;;
17858;SDS011;35426;30.698;104.050;2023-03-01T04:23:42;71.50;;;17.33;;
17858;SDS011;35426;30.698;104.050;2023-03-01T04:26:23;72.13;;;16.47;;
17858;SDS011;35426;30.698;104.050;2023-03-01T04:29:01;73.90;;;16.80;;
17858;SDS011;35426;30.698;104.050;2023-03-01T04:31:44;56.60;;;13.67;;
17858;SDS011;35426;30.698;104.050;2023-03-01T04:34:23;63.17;;;13.73;;
17858;SDS011;35426;30.698;104.050;2023-03-01T04:37:07;58.23;;;14.50;;
17858;SDS011;35426;30.698;104.050;2023-03-01T04:39:46;74.80;;;14.97;;
17858;SDS011;35426;30.698;104.050;2023-03-01T04:42:23;56.63;;;13.57;;
17858;SDS011;35426;30.698;104.050;2023-03-01T04:45:04;54.87;;;12.13;;
17858;SDS011;35426;30.698;104.050;2023-03-01T04:47:48;66.10;;;13.17;;
17858;SDS011;35426;30.698;104.050;2023-03-01T04:50:32;54.70;;;12.57;;
17858;SDS011;35426;30.698;104.050;2023-03-01T04:53:18;62.13;;;13.40;;
17858;SDS011;35426;30.698;104.050;2023-03-01T04:55:58;52.20;;;12.67;;
17858;SDS011;35426;30.698;104.050;2023-03-01T04:58:35;54.00;;;12.90;;
17858;SDS011;35426;30.698;104.050;2023-03-01T05:01:12;64.27;;;13.37;;
17858;SDS011;35426;30.698;104.050;2023-03-01T05:03:52;57.30;;;12.93;;
17858;SDS011;35426;30.698;104.050;2023-03-01T05:06:33;56.67;;;13.47;;
17858;SDS011;35426;30.698;104.050;2023-03-01T05:09:15;60.37;;;13.00;;
17858;SDS011;35426;30.698;104.050;2023-03-01T05:11:53;57.77;;;14.20;;
17858;SDS011;35426;30.698;104.050;2023-03-01T05:14:30;53.53;;;13.03;;
17858;SDS011;35426;30.698;104.050;2023-03-01T05:17:06;56.47;;;12.83;;
17858;SDS011;35426;30.698;104.050;2023-03-01T05:19:47;56.90;;;14.57;;
17858;SDS011;35426;30.698;104.050;2023-03-01T05:22:26;56.60;;;14.10;;
17858;SDS011;35426;30.698;104.050;2023-03-01T05:25:05;58.73;;;14.23;;
17858;SDS011;35426;30.698;104.050;2023-03-01T05:27:45;56.67;;;13.67;;
17858;SDS011;35426;30.698;104.050;2023-03-01T05:30:35;58.63;;;14.40;;
17858;SDS011;35426;30.698;104.050;2023-03-01T05:33:24;61.20;;;15.20;;
17858;SDS011;35426;30.698;104.050;2023-03-01T05:36:21;64.43;;;14.97;;
17858;SDS011;35426;30.698;104.050;2023-03-01T05:38:58;66.70;;;14.83;;
17858;SDS011;35426;30.698;104.050;2023-03-01T05:41:37;62.37;;;15.77;;
17858;SDS011;35426;30.698;104.050;2023-03-01T05:44:13;68.50;;;14.30;;
17858;SDS011;35426;30.698;104.050;2023-03-01T05:46:57;70.17;;;14.90;;
17858;SDS011;35426;30.698;104.050;2023-03-01T05:49:36;54.17;;;14.70;;
17858;SDS011;35426;30.698;104.050;2023-03-01T05:52:12;63.10;;;14.83;;
17858;SDS011;35426;30.698;104.050;2023-03-01T05:54:54;57.27;;;14.50;;
17858;SDS011;35426;30.698;104.050;2023-03-01T05:57:32;70.03;;;15.67;;
17858;SDS011;35426;30.698;104.050;2023-03-01T06:00:09;74.90;;;15.33;;
17858;SDS011;35426;30.698;104.050;2023-03-01T06:02:46;60.87;;;15.27;;
17858;SDS011;35426;30.698;104.050;2023-03-01T06:05:26;66.17;;;16.47;;
17858;SDS011;35426;30.698;104.050;2023-03-01T06:08:03;70.50;;;15.83;;
17858;SDS011;35426;30.698;104.050;2023-03-01T06:10:46;55.67;;;15.27;;
17858;SDS011;35426;30.698;104.050;2023-03-01T06:13:26;61.87;;;16.03;;
17858;SDS011;35426;30.698;104.050;2023-03-01T06:16:16;64.43;;;16.47;;
17858;SDS011;35426;30.698;104.050;2023-03-01T06:18:58;57.83;;;15.73;;
17858;SDS011;35426;30.698;104.050;2023-03-01T06:21:35;65.40;;;16.20;;
17858;SDS011;35426;30.698;104.050;2023-03-01T06:24:12;71.17;;;16.50;;
17858;SDS011;35426;30.698;104.050;2023-03-01T06:26:49;62.30;;;17.20;;
17858;SDS011;35426;30.698;104.050;2023-03-01T06:29:30;65.50;;;16.53;;
17858;SDS011;35426;30.698;104.050;2023-03-01T06:32:10;59.47;;;17.00;;
17858;SDS011;35426;30.698;104.050;2023-03-01T06:34:50;63.37;;;16.67;;
17858;SDS011;35426;30.698;104.050;2023-03-01T06:37:27;71.20;;;17.03;;
17858;SDS011;35426;30.698;104.050;2023-03-01T06:40:04;69.63;;;16.30;;
17858;SDS011;35426;30.698;104.050;2023-03-01T06:42:47;67.93;;;17.50;;
17858;SDS011;35426;30.698;104.050;2023-03-01T06:45:27;69.40;;;18.13;;
17858;SDS011;35426;30.698;104.050;2023-03-01T06:48:07;71.90;;;17.30;;
17858;SDS011;35426;30.698;104.050;2023-03-01T06:50:45;63.30;;;16.30;;
17858;SDS011;35426;30.698;104.050;2023-03-01T06:53:24;62.97;;;17.13;;
17858;SDS011;35426;30.698;104.050;2023-03-01T06:56:01;65.83;;;17.40;;
17858;SDS011;35426;30.698;104.050;2023-03-01T06:58:43;66.23;;;18.00;;
17858;SDS011;35426;30.698;104.050;2023-03-01T07:01:26;62.13;;;17.33;;
17858;SDS011;35426;30.698;104.050;2023-03-01T07:04:04;62.67;;;17.90;;
17858;SDS011;35426;30.698;104.050;2023-03-01T07:06:41;74.40;;;17.37;;
17858;SDS011;35426;30.698;104.050;2023-03-01T07:09:25;56.97;;;17.40;;
17858;SDS011;35426;30.698;104.050;2023-03-01T07:12:09;54.17;;;17.10;;
17858;SDS011;35426;30.698;104.050;2023-03-01T07:14:47;63.50;;;17.90;;
17858;SDS011;35426;30.698;104.050;2023-03-01T07:17:26;66.23;;;18.13;;
17858;SDS011;35426;30.698;104.050;2023-03-01T07:20:02;66.30;;;18.33;;
17858;SDS011;35426;30.698;104.050;2023-03-01T07:22:42;71.13;;;18.50;;
17858;SDS011;35426;30.698;104.050;2023-03-01T07:25:25;60.60;;;18.23;;
17858;SDS011;35426;30.698;104.050;2023-03-01T07:28:03;72.13;;;19.63;;
17858;SDS011;35426;30.698;104.050;2023-03-01T07:30:42;59.50;;;17.33;;
17858;SDS011;35426;30.698;104.050;2023-03-01T07:33:20;70.03;;;16.93;;
17858;SDS011;35426;30.698;104.050;2023-03-01T07:35:59;65.17;;;17.37;;
17858;SDS011;35426;30.698;104.050;2023-03-01T07:38:44;55.40;;;16.37;;
17858;SDS011;35426;30.698;104.050;2023-03-01T07:41:20;64.13;;;15.57;;
17858;SDS011;35426;30.698;104.050;2023-03-01T07:43:57;56.30;;;16.37;;
17858;SDS011;35426;30.698;104.050;2023-03-01T07:46:36;62.00;;;16.63;;
17858;SDS011;35426;30.698;104.050;2023-03-01T07:49:24;62.20;;;16.00;;
17858;SDS011;35426;30.698;104.050;2023-03-01T07:52:01;63.03;;;15.97;;
17858;SDS011;35426;30.698;104.050;2023-03-01T07:54:42;58.03;;;15.97;;
17858;SDS011;35426;30.698;104.050;2023-03-01T07:57:19;67.53;;;15.53;;
17858;SDS011;35426;30.698;104.050;2023-03-01T07:59:56;60.83;;;15.43;;
17858;SDS011;35426;30.698;104.050;2023-03-01T08:02:38;59.37;;;15.90;;
17858;SDS011;35426;30.698;104.050;2023-03-01T08:05:19;63.33;;;15.10;;
17858;SDS011;35426;30.698;104.050;2023-03-01T08:07:56;63.80;;;16.00;;
17858;SDS011;35426;30.698;104.050;2023-03-01T08:10:33;61.90;;;15.43;;
17858;SDS011;35426;30.698;104.050;2023-03-01T08:13:12;61.37;;;15.00;;
17858;SDS011;35426;30.698;104.050;2023-03-01T08:15:53;57.63;;;14.90;;
17858;SDS011;35426;30.698;104.050;2023-03-01T08:18:34;60.93;;;14.63;;
17858;SDS011;35426;30.698;104.050;2023-03-01T08:21:19;57.30;;;15.80;;
17858;SDS011;35426;30.698;104.050;2023-03-01T08:23:56;53.20;;;14.30;;
17858;SDS011;35426;30.698;104.050;2023-03-01T08:26:35;61.30;;;14.60;;
17858;SDS011;35426;30.698;104.050;2023-03-01T08:29:14;51.37;;;14.17;;
17858;SDS011;35426;30.698;104.050;2023-03-01T08:31:53;57.10;;;14.20;;
17858;SDS011;35426;30.698;104.050;2023-03-01T08:34:30;49.40;;;14.03;;
17858;SDS011;35426;30.698;104.050;2023-03-01T08:37:11;54.97;;;15.00;;
17858;SDS011;35426;30.698;104.050;2023-03-01T08:39:48;70.73;;;14.80;;
17858;SDS011;35426;30.698;104.050;2023-03-01T08:42:25;66.73;;;14.57;;
17858;SDS011;35426;30.698;104.050;2023-03-01T08:45:02;54.67;;;14.80;;
17858;SDS011;35426;30.698;104.050;2023-03-01T08:47:52;74.30;;;16.93;;
17858;SDS011;35426;30.698;104.050;2023-03-01T08:50:29;60.67;;;15.60;;
17858;SDS011;35426;30.698;104.050;2023-03-01T08:53:08;63.43;;;15.27;;
17858;SDS011;35426;30.698;104.050;2023-03-01T08:55:44;51.47;;;13.77;;
17858;SDS011;35426;30.698;104.050;2023-03-01T08:58:21;60.77;;;14.20;;
17858;SDS011;35426;30.698;104.050;2023-03-01T09:00:58;58.93;;;13.07;;
17858;SDS011;35426;30.698;104.050;2023-03-01T09:03:39;52.17;;;13.73;;
17858;SDS011;35426;30.698;104.050;2023-03-01T09:06:17;59.40;;;14.53;;
17858;SDS011;35426;30.698;104.050;2023-03-01T09:08:56;55.70;;;13.90;;
17858;SDS011;35426;30.698;104.050;2023-03-01T09:11:38;58.93;;;13.00;;
17858;SDS011;35426;30.698;104.050;2023-03-01T09:14:16;57.93;;;14.30;;
17858;SDS011;35426;30.698;104.050;2023-03-01T09:16:53;49.70;;;13.80;;
17858;SDS011;35426;30.698;104.050;2023-03-01T09:19:33;64.23;;;14.17;;
17858;SDS011;35426;30.698;104.050;2023-03-01T09:22:09;50.83;;;13.17;;
17858;SDS011;35426;30.698;104.050;2023-03-01T09:24:48;57.40;;;14.07;;
17858;SDS011;35426;30.698;104.050;2023-03-01T09:27:25;52.53;;;13.60;;
17858;SDS011;35426;30.698;104.050;2023-03-01T09:30:04;55.13;;;12.37;;
17858;SDS011;35426;30.698;104.050;2023-03-01T09:32:42;57.40;;;14.43;;
17858;SDS011;35426;30.698;104.050;2023-03-01T09:35:21;53.67;;;14.07;;
17858;SDS011;35426;30.698;104.050;2023-03-01T09:38:02;60.53;;;13.67;;
17858;SDS011;35426;30.698;104.050;2023-03-01T09:40:44;52.13;;;14.30;;
17858;SDS011;35426;30.698;104.050;2023-03-01T09:43:23;52.73;;;14.10;;
17858;SDS011;35426;30.698;104.050;2023-03-01T09:46:08;60.30;;;16.40;;
17858;SDS011;35426;30.698;104.050;2023-03-01T09:48:49;67.70;;;16.50;;
17858;SDS011;35426;30.698;104.050;2023-03-01T09:51:30;63.73;;;17.27;;
17858;SDS011;35426;30.698;104.050;2023-03-01T09:54:11;68.93;;;18.10;;
17858;SDS011;35426;30.698;104.050;2023-03-01T09:56:53;75.93;;;20.97;;
17858;SDS011;35426;30.698;104.050;2023-03-01T09:59:57;62.17;;;18.33;;
17858;SDS011;35426;30.698;104.050;2023-03-01T10:02:52;68.70;;;18.73;;
17858;SDS011;35426;30.698;104.050;2023-03-01T10:05:43;77.80;;;19.37;;
17858;SDS011;35426;30.698;104.050;2023-03-01T10:08:38;64.70;;;19.67;;
17858;SDS011;35426;30.698;104.050;2023-03-01T10:11:23;68.13;;;19.90;;
17858;SDS011;35426;30.698;104.050;2023-03-01T10:14:13;77.63;;;22.23;;
17858;SDS011;35426;30.698;104.050;2023-03-01T10:17:00;72.03;;;22.93;;
17858;SDS011;35426;30.698;104.050;2023-03-01T10:19:40;73.73;;;22.90;;
17858;SDS011;35426;30.698;104.050;2023-03-01T10:22:19;76.63;;;22.87;;
17858;SDS011;35426;30.698;104.050;2023-03-01T10:25:01;88.87;;;26.23;;
17858;SDS011;35426;30.698;104.050;2023-03-01T10:27:39;83.17;;;25.27;;
17858;SDS011;35426;30.698;104.050;2023-03-01T10:30:29;79.20;;;25.07;;
17858;SDS011;35426;30.698;104.050;2023-03-01T10:33:15;81.73;;;25.23;;
17858;SDS011;35426;30.698;104.050;2023-03-01T10:35:55;87.23;;;26.70;;
17858;SDS011;35426;30.698;104.050;2023-03-01T10:38:46;95.67;;;28.07;;
17858;SDS011;35426;30.698;104.050;2023-03-01T10:41:31;89.77;;;27.47;;
17858;SDS011;35426;30.698;104.050;2023-03-01T10:44:12;97.27;;;28.10;;
17858;SDS011;35426;30.698;104.050;2023-03-01T10:47:18;83.63;;;26.90;;
17858;SDS011;35426;30.698;104.050;2023-03-01T10:50:04;83.00;;;27.00;;
17858;SDS011;35426;30.698;104.050;2023-03-01T10:53:02;92.87;;;27.07;;
17858;SDS011;35426;30.698;104.050;2023-03-01T10:56:00;81.93;;;27.23;;
17858;SDS011;35426;30.698;104.050;2023-03-01T10:58:40;111.47;;;29.63;;
17858;SDS011;35426;30.698;104.050;2023-03-01T11:01:35;87.37;;;28.07;;
17858;SDS011;35426;30.698;104.050;2023-03-01T11:04:15;102.07;;;29.67;;
17858;SDS011;35426;30.698;104.050;2023-03-01T11:06:58;100.13;;;28.93;;
17858;SDS011;35426;30.698;104.050;2023-03-01T11:09:35;86.30;;;27.70;;
17858;SDS011;35426;30.698;104.050;2023-03-01T11:12:14;83.43;;;28.07;;
17858;SDS011;35426;30.698;104.050;2023-03-01T11:14:52;98.37;;;28.73;;
17858;SDS011;35426;30.698;104.050;2023-03-01T11:17:31;83.77;;;29.13;;
17858;SDS011;35426;30.698;104.050;2023-03-01T11:20:33;76.67;;;26.57;;
17858;SDS011;35426;30.698;104.050;2023-03-01T11:23:12;81.57;;;26.97;;
17858;SDS011;35426;30.698;104.050;2023-03-01T11:25:54;93.23;;;26.73;;
17858;SDS011;35426;30.698;104.050;2023-03-01T11:28:33;80.83;;;27.70;;
17858;SDS011;35426;30.698;104.050;2023-03-01T11:31:14;91.67;;;28.43;;
17858;SDS011;35426;30.698;104.050;2023-03-01T11:33:54;84.83;;;27.67;;
17858;SDS011;35426;30.698;104.050;2023-03-01T11:36:38;99.27;;;28.40;;
17858;SDS011;35426;30.698;104.050;2023-03-01T11:39:27;100.67;;;29.80;;
17858;SDS011;35426;30.698;104.050;2023-03-01T11:42:10;87.60;;;28.67;;
17858;SDS011;35426;30.698;104.050;2023-03-01T11:45:10;84.70;;;28.80;;
17858;SDS011;35426;30.698;104.050;2023-03-01T11:48:09;97.13;;;28.20;;
17858;SDS011;35426;30.698;104.050;2023-03-01T11:51:19;80.20;;;28.37;;
17858;SDS011;35426;30.698;104.050;2023-03-01T11:54:17;92.70;;;28.17;;
17858;SDS011;35426;30.698;104.050;2023-03-01T11:57:00;92.80;;;29.60;;
17858;SDS011;35426;30.698;104.050;2023-03-01T11:59:47;100.40;;;29.13;;
17858;SDS011;35426;30.698;104.050;2023-03-01T12:03:00;83.03;;;28.67;;
17858;SDS011;35426;30.698;104.050;2023-03-01T12:09:09;87.70;;;28.60;;
17858;SDS011;35426;30.698;104.050;2023-03-01T12:22:12;82.13;;;27.37;;
17858;SDS011;35426;30.698;104.050;2023-03-01T12:25:16;81.80;;;27.60;;
17858;SDS011;35426;30.698;104.050;2023-03-01T12:37:36;79.97;;;25.97;;
17858;SDS011;35426;30.698;104.050;2023-03-01T12:40:29;86.63;;;25.30;;
17858;SDS011;35426;30.698;104.050;2023-03-01T12:43:24;76.93;;;24.80;;
17858;SDS011;35426;30.698;104.050;2023-03-01T12:46:25;79.67;;;24.73;;
17858;SDS011;35426;30.698;104.050;2023-03-01T12:49:20;90.87;;;25.37;;
17858;SDS011;35426;30.698;104.050;2023-03-01T12:52:07;75.53;;;24.90;;
17858;SDS011;35426;30.698;104.050;2023-03-01T12:54:55;80.27;;;24.97;;
17858;SDS011;35426;30.698;104.050;2023-03-01T12:57:37;72.97;;;25.00;;
17858;SDS011;35426;30.698;104.050;2023-03-01T13:00:27;70.23;;;24.17;;
17858;SDS011;35426;30.698;104.050;2023-03-01T13:03:17;80.57;;;24.83;;
17858;SDS011;35426;30.698;104.050;2023-03-01T13:06:07;82.43;;;25.97;;
17858;SDS011;35426;30.698;104.050;2023-03-01T13:08:47;82.13;;;25.13;;
17858;SDS011;35426;30.698;104.050;2023-03-01T13:11:31;85.00;;;26.27;;
17858;SDS011;35426;30.698;104.050;2023-03-01T13:17:40;74.83;;;25.37;;
17858;SDS011;35426;30.698;104.050;2023-03-01T13:20:19;93.73;;;25.20;;
17858;SDS011;35426;30.698;104.050;2023-03-01T13:23:04;83.20;;;25.00;;
17858;SDS011;35426;30.698;104.050;2023-03-01T13:28:53;78.07;;;25.73;;
17858;SDS011;35426;30.698;104.050;2023-03-01T13:37:41;87.17;;;25.87;;
17858;SDS011;35426;30.698;104.050;2023-03-01T13:43:32;82.00;;;25.73;;
17858;SDS011;35426;30.698;104.050;2023-03-01T13:46:17;85.63;;;26.13;;
17858;SDS011;35426;30.698;104.050;2023-03-01T13:49:02;68.13;;;24.93;;
17858;SDS011;35426;30.698;104.050;2023-03-01T13:51:52;65.97;;;25.10;;
17858;SDS011;35426;30.698;104.050;2023-03-01T13:54:30;80.27;;;26.60;;
17858;SDS011;35426;30.698;104.050;2023-03-01T13:57:21;72.77;;;24.60;;
17858;SDS011;35426;30.698;104.050;2023-03-01T14:00:28;75.97;;;25.37;;
17858;SDS011;35426;30.698;104.050;2023-03-01T14:03:13;85.67;;;25.77;;
17858;SDS011;35426;30.698;104.050;2023-03-01T14:06:05;77.03;;;25.63;;
17858;SDS011;35426;30.698;104.050;2023-03-01T14:08:52;86.90;;;25.87;;
17858;SDS011;35426;30.698;104.050;2023-03-01T14:14:52;77.43;;;25.20;;
17858;SDS011;35426;30.698;104.050;2023-03-01T14:20:44;88.93;;;26.27;;
17858;SDS011;35426;30.698;104.050;2023-03-01T14:23:25;87.67;;;26.90;;
17858;SDS011;35426;30.698;104.050;2023-03-01T14:26:17;84.07;;;25.87;;
17858;SDS011;35426;30.698;104.050;2023-03-01T14:28:57;80.40;;;25.63;;
17858;SDS011;35426;30.698;104.050;2023-03-01T14:31:40;93.63;;;26.03;;
17858;SDS011;35426;30.698;104.050;2023-03-01T14:34:22;74.57;;;26.33;;
17858;SDS011;35426;30.698;104.050;2023-03-01T14:37:14;95.60;;;25.90;;
17858;SDS011;35426;30.698;104.050;2023-03-01T14:40:20;81.30;;;26.43;;
17858;SDS011;35426;30.698;104.050;2023-03-01T14:43:17;74.93;;;24.63;;
17858;SDS011;35426;30.698;104.050;2023-03-01T14:46:03;79.07;;;24.43;;
17858;SDS011;35426;30.698;104.050;2023-03-01T14:48:49;83.40;;;23.73;;
17858;SDS011;35426;30.698;104.050;2023-03-01T14:51:27;78.83;;;24.37;;
17858;SDS011;35426;30.698;104.050;2023-03-01T14:54:15;77.80;;;23.37;;
17858;SDS011;35426;30.698;104.050;2023-03-01T14:57:12;73.57;;;22.43;;
17858;SDS011;35426;30.698;104.050;2023-03-01T15:02:54;70.03;;;23.27;;
17858;SDS011;35426;30.698;104.050;2023-03-01T15:05:40;81.07;;;21.80;;
17858;SDS011;35426;30.698;104.050;2023-03-01T15:08:18;62.67;;;22.13;;
17858;SDS011;35426;30.698;104.050;2023-03-01T15:11:17;74.50;;;22.70;;
17858;SDS011;35426;30.698;104.050;2023-03-01T15:17:39;73.00;;;23.07;;
17858;SDS011;35426;30.698;104.050;2023-03-01T15:20:19;60.30;;;21.23;;
17858;SDS011;35426;30.698;104.050;2023-03-01T15:23:01;66.63;;;21.90;;
17858;SDS011;35426;30.698;104.050;2023-03-01T15:25:43;72.87;;;22.47;;
17858;SDS011;35426;30.698;104.050;2023-03-01T15:28:34;65.83;;;21.60;;
17858;SDS011;35426;30.698;104.050;2023-03-01T15:31:17;71.10;;;21.70;;
17858;SDS011;35426;30.698;104.050;2023-03-01T15:37:34;75.77;;;21.10;;
17858;SDS011;35426;30.698;104.050;2023-03-01T15:40:22;73.97;;;21.80;;
17858;SDS011;35426;30.698;104.050;2023-03-01T15:43:36;68.57;;;22.13;;
17858;SDS011;35426;30.698;104.050;2023-03-01T15:46:21;73.47;;;22.60;;
17858;SDS011;35426;30.698;104.050;2023-03-01T15:49:01;80.77;;;23.17;;
17858;SDS011;35426;30.698;104.050;2023-03-01T15:52:26;68.23;;;23.10;;
17858;SDS011;35426;30.698;104.050;2023-03-01T15:55:14;67.33;;;22.73;;
17858;SDS011;35426;30.698;104.050;2023-03-01T15:57:58;65.23;;;22.00;;
17858;SDS011;35426;30.698;104.050;2023-03-01T16:00:38;74.37;;;23.50;;
17858;SDS011;35426;30.698;104.050;2023-03-01T16:03:31;72.47;;;24.27;;
17858;SDS011;35426;30.698;104.050;2023-03-01T16:06:09;75.90;;;24.00;;
17858;SDS011;35426;30.698;104.050;2023-03-01T16:08:50;73.70;;;23.27;;
17858;SDS011;35426;30.698;104.050;2023-03-01T16:11:29;73.07;;;23.10;;
17858;SDS011;35426;30.698;104.050;2023-03-01T16:14:07;64.83;;;23.00;;
17858;SDS011;35426;30.698;104.050;2023-03-01T16:16:47;66.27;;;23.30;;
17858;SDS011;35426;30.698;104.050;2023-03-01T16:19:25;67.13;;;22.57;;